Time;durP1;ratioP1;P1;durP2;ratioP2;P2;SDS_P1;SDS_P2;PMS_P1;PMS_P2;Temp;Humidity;BMP_temperature;BMP_pressure;BME280_temperature;BME280_humidity;BME280_pressure;Samples;Min_cycle;Max_cycle;Signal;HPM_P1;HPM_P2
2022/06/17 00:01:22;;;;;;;1.10;1.00;;;;;;;19.97;63.04;95982.59;4360879;32;20198;-61
2022/06/17 00:03:49;;;;;;;1.30;1.30;;;;;;;20.03;62.94;95988.53;4360355;32;20300;-61
2022/06/17 00:06:15;;;;;;;1.30;1.30;;;;;;;19.96;62.81;95996.41;4361006;32;20249;-61
2022/06/17 00:08:46;;;;;;;1.33;1.33;;;;;;;19.90;63.17;95996.62;4374254;32;20196;-61
2022/06/17 00:11:16;;;;;;;1.67;1.47;;;;;;;19.99;63.84;95993.03;4374531;32;20207;-61
2022/06/17 00:13:41;;;;;;;1.80;1.10;;;;;;;20.04;63.84;95984.72;4374179;32;20268;-61
2022/06/17 00:16:12;;;;;;;1.10;1.10;;;;;;;19.92;63.54;95977.44;4363868;32;20241;-61
2022/06/17 00:18:38;;;;;;;1.00;1.00;;;;;;;19.86;64.14;95982.25;4359751;32;20251;-62
2022/06/17 00:21:15;;;;;;;1.43;1.43;;;;;;;19.78;64.29;95985.84;4374394;32;20242;-62
2022/06/17 00:23:41;;;;;;;0.97;0.97;;;;;;;19.81;63.35;95971.72;4372872;32;20215;-61
2022/06/17 00:26:10;;;;;;;1.73;1.63;;;;;;;19.80;63.75;95966.66;4374063;32;20224;-61
2022/06/17 00:28:36;;;;;;;0.83;0.83;;;;;;;19.78;63.75;95958.12;4367938;32;20238;-61
2022/06/17 00:31:02;;;;;;;0.90;0.90;;;;;;;19.78;63.21;95964.28;4376780;32;20212;-61
2022/06/17 00:33:28;;;;;;;0.80;0.80;;;;;;;19.77;63.16;95962.72;4370696;32;20185;-61
2022/06/17 00:35:56;;;;;;;0.97;0.97;;;;;;;19.77;63.71;95967.31;4374476;32;20283;-61
2022/06/17 00:38:39;;;;;;;1.43;1.37;;;;;;;19.70;63.49;95984.06;4360039;32;20254;-61
2022/06/17 00:41:24;;;;;;;1.20;1.20;;;;;;;19.75;63.44;95980.34;4372351;32;20202;-61
2022/06/17 00:43:50;;;;;;;1.40;1.30;;;;;;;19.59;63.58;95985.59;4360475;32;20192;-62
2022/06/17 00:46:34;;;;;;;1.60;1.40;;;;;;;19.46;64.04;95981.28;4373575;32;20188;-62
2022/06/17 00:49:16;;;;;;;1.43;1.27;;;;;;;19.35;64.71;95977.44;4356848;32;20206;-61
2022/06/17 00:51:58;;;;;;;3.67;1.83;;;;;;;19.31;64.50;95971.97;4359410;32;20238;-62
2022/06/17 00:54:25;;;;;;;0.63;0.63;;;;;;;19.31;64.27;95976.56;4365455;32;20321;-62
2022/06/17 00:56:51;;;;;;;1.00;1.00;;;;;;;19.31;65.71;95981.94;4372503;32;20181;-62
2022/06/17 00:59:16;;;;;;;0.90;0.90;;;;;;;19.31;64.54;95977.34;4360449;32;20189;-62
2022/06/17 01:02:03;;;;;;;0.97;0.97;;;;;;;19.18;65.97;95976.50;4360029;32;20219;-62
2022/06/17 01:04:34;;;;;;;1.07;1.07;;;;;;;19.20;65.77;95974.28;4359795;32;20193;-62
2022/06/17 01:07:14;;;;;;;1.27;1.00;;;;;;;19.28;65.99;95978.00;4360222;32;20211;-62
2022/06/17 01:10:01;;;;;;;1.37;1.23;;;;;;;19.16;66.03;95984.13;4372672;32;20251;-62
2022/06/17 01:12:35;;;;;;;1.63;1.53;;;;;;;19.12;65.45;95980.50;4362206;32;20192;-62
2022/06/17 01:15:02;;;;;;;0.80;0.80;;;;;;;19.05;65.84;95976.81;4374165;32;20215;-62
2022/06/17 01:17:27;;;;;;;0.90;0.90;;;;;;;19.07;66.13;95991.50;4365641;32;20234;-62
2022/06/17 01:19:57;;;;;;;1.00;1.00;;;;;;;19.17;66.66;95982.22;4374159;32;20260;-62
2022/06/17 01:22:42;;;;;;;1.00;1.00;;;;;;;19.07;66.20;95990.72;4373932;32;20242;-62
2022/06/17 01:25:07;;;;;;;2.20;1.43;;;;;;;19.17;66.17;95996.44;4372428;32;20228;-61
2022/06/17 01:27:38;;;;;;;0.87;0.87;;;;;;;18.96;66.10;96005.66;4376218;32;20203;-61
2022/06/17 01:30:06;;;;;;;1.70;1.60;;;;;;;18.98;66.25;96014.19;4360520;32;20340;-62
2022/06/17 01:32:44;;;;;;;1.03;1.03;;;;;;;18.94;66.62;96027.50;4363433;32;20192;-61
2022/06/17 01:35:10;;;;;;;1.10;1.10;;;;;;;18.78;66.46;96024.63;4372132;32;20234;-61
2022/06/17 01:37:35;;;;;;;0.80;0.80;;;;;;;18.87;67.03;96027.25;4373843;32;20190;-62
2022/06/17 01:40:01;;;;;;;0.80;0.80;;;;;;;18.99;66.81;96026.53;4368622;32;20230;-62
2022/06/17 01:42:28;;;;;;;1.53;1.43;;;;;;;19.00;66.42;96017.34;4374277;32;20205;-62
2022/06/17 01:44:54;;;;;;;0.90;0.90;;;;;;;19.02;65.82;96012.44;4372561;32;20204;-62
2022/06/17 01:47:25;;;;;;;1.17;1.17;;;;;;;19.02;66.16;96013.22;4376775;32;20208;-61
2022/06/17 01:49:56;;;;;;;0.90;0.90;;;;;;;19.09;65.69;96021.53;4362638;32;20204;-62
2022/06/17 01:52:27;;;;;;;1.10;1.10;;;;;;;19.13;66.09;96021.66;4360407;32;20227;-62
2022/06/17 01:55:15;;;;;;;1.13;0.93;;;;;;;19.18;64.44;96016.06;4363044;32;20208;-62
2022/06/17 01:57:51;;;;;;;1.07;1.07;;;;;;;19.20;63.76;96024.59;4358778;32;20193;-62
2022/06/17 02:00:23;;;;;;;1.77;1.67;;;;;;;19.17;64.55;96020.66;4375263;32;20196;-61
2022/06/17 02:02:55;;;;;;;0.97;0.97;;;;;;;19.12;61.73;96012.78;4357481;32;20236;-62
2022/06/17 02:05:23;;;;;;;0.80;0.80;;;;;;;19.17;63.32;96003.72;4376476;32;20246;-62
2022/06/17 02:07:58;;;;;;;0.80;0.80;;;;;;;19.17;63.01;96014.50;4364514;32;20200;-62
2022/06/17 02:10:28;;;;;;;0.80;0.80;;;;;;;19.15;63.28;96001.38;4349313;32;20271;-61
2022/06/17 02:12:56;;;;;;;1.17;1.17;;;;;;;19.19;63.06;96015.75;4375858;32;20264;-62
2022/06/17 02:15:22;;;;;;;3.13;1.57;;;;;;;19.18;61.89;96008.78;4362494;32;20185;-62
2022/06/17 02:17:49;;;;;;;1.27;1.00;;;;;;;19.14;61.52;95999.78;4375349;32;20172;-62
2022/06/17 02:20:17;;;;;;;0.70;0.70;;;;;;;19.06;60.55;95999.91;4362654;32;20205;-62
2022/06/17 02:22:43;;;;;;;0.77;0.77;;;;;;;19.04;60.68;95994.84;4362772;32;20201;-62
2022/06/17 02:25:15;;;;;;;0.90;0.90;;;;;;;18.92;62.70;95989.41;4361775;32;20216;-62
2022/06/17 02:27:43;;;;;;;1.17;0.80;;;;;;;18.85;61.97;95986.47;4370532;32;20200;-62
2022/06/17 02:30:10;;;;;;;0.67;0.67;;;;;;;18.81;61.64;95980.97;4361846;32;20216;-62
2022/06/17 02:32:37;;;;;;;1.57;1.30;;;;;;;18.80;62.00;95983.97;4372613;32;20224;-62
2022/06/17 02:35:14;;;;;;;0.60;0.60;;;;;;;18.75;63.86;95976.87;4377260;32;20193;-61
2022/06/17 02:37:39;;;;;;;0.97;0.97;;;;;;;18.68;63.60;95982.03;4374853;32;20255;-62
2022/06/17 02:40:23;;;;;;;0.80;0.80;;;;;;;18.70;63.72;95979.00;4375591;32;20196;-62
2022/06/17 02:42:50;;;;;;;1.10;1.10;;;;;;;18.76;65.58;95972.31;4367816;32;20235;-62
2022/06/17 02:45:23;;;;;;;1.33;1.23;;;;;;;18.83;66.23;95983.31;4375311;32;20232;-62
2022/06/17 02:47:51;;;;;;;1.47;1.37;;;;;;;18.88;65.80;95972.38;4362553;32;20188;-62
2022/06/17 02:50:24;;;;;;;1.00;1.00;;;;;;;18.82;65.78;95979.06;4362000;32;20223;-62
2022/06/17 02:52:54;;;;;;;0.60;0.60;;;;;;;18.80;65.89;95971.31;4375452;32;20256;-62
2022/06/17 02:55:38;;;;;;;1.07;1.07;;;;;;;18.78;66.58;95970.88;4361669;32;20204;-62
2022/06/17 02:58:31;;;;;;;0.60;0.60;;;;;;;18.73;67.17;95964.88;4374443;32;20185;-62
2022/06/17 03:00:58;;;;;;;0.83;0.83;;;;;;;18.58;65.23;95968.16;4371420;32;20185;-61
2022/06/17 03:03:24;;;;;;;0.97;0.97;;;;;;;18.60;67.14;95974.03;4375685;32;20313;-62
2022/06/17 03:05:50;;;;;;;0.53;0.53;;;;;;;18.51;66.84;95969.44;4375741;32;20235;-62
2022/06/17 03:08:26;;;;;;;0.80;0.80;;;;;;;18.59;67.38;95967.03;4361804;32;20196;-61
2022/06/17 03:10:54;;;;;;;0.83;0.83;;;;;;;18.56;67.76;95949.66;4373751;32;20214;-62
2022/06/17 03:13:25;;;;;;;1.43;1.43;;;;;;;18.50;66.93;95950.97;4361993;32;20192;-61
2022/06/17 03:15:54;;;;;;;1.37;1.27;;;;;;;18.52;67.20;95957.59;4375105;32;20212;-61
2022/06/17 03:18:21;;;;;;;1.10;1.10;;;;;;;18.54;66.06;95966.12;4374405;32;20181;-61
2022/06/17 03:20:48;;;;;;;0.80;0.80;;;;;;;18.53;66.57;95969.91;4374155;32;20314;-61
2022/06/17 03:23:33;;;;;;;1.03;1.03;;;;;;;18.49;66.69;95973.59;4360897;32;20197;-61
2022/06/17 03:26:22;;;;;;;0.80;0.80;;;;;;;18.46;67.55;95975.03;4359682;32;20248;-63
2022/06/17 03:28:49;;;;;;;0.50;0.50;;;;;;;18.45;66.90;95984.22;4358501;32;20211;-62
2022/06/17 03:31:30;;;;;;;0.90;0.90;;;;;;;18.53;66.58;95986.03;4373394;32;20240;-62
2022/06/17 03:34:03;;;;;;;1.10;1.10;;;;;;;18.33;67.13;95992.19;4375045;32;20211;-62
2022/06/17 03:36:38;;;;;;;1.33;1.33;;;;;;;18.25;68.70;95993.03;4367570;32;20215;-62
2022/06/17 03:39:12;;;;;;;1.27;1.27;;;;;;;18.28;68.31;95994.28;4375373;32;20238;-62
2022/06/17 03:42:00;;;;;;;0.70;0.70;;;;;;;18.25;69.33;95989.56;4373716;32;20215;-62
2022/06/17 03:44:34;;;;;;;0.93;0.93;;;;;;;18.26;68.99;96000.00;4374700;32;20196;-62
2022/06/17 03:47:17;;;;;;;1.27;1.27;;;;;;;18.26;68.08;96007.25;4361825;32;20250;-62
2022/06/17 03:49:49;;;;;;;1.07;1.07;;;;;;;18.25;68.92;96009.16;4361678;32;20196;-63
2022/06/17 03:52:24;;;;;;;1.50;1.40;;;;;;;18.13;67.69;96017.09;4374751;32;20193;-62
2022/06/17 03:54:49;;;;;;;1.47;1.40;;;;;;;18.19;69.00;96016.59;4360925;32;20188;-62
2022/06/17 03:57:16;;;;;;;1.13;1.13;;;;;;;18.12;69.22;96015.53;4374260;32;20255;-62
2022/06/17 03:59:49;;;;;;;0.73;0.73;;;;;;;18.14;69.08;96021.38;4374165;32;20184;-62
2022/06/17 04:02:17;;;;;;;1.00;1.00;;;;;;;18.17;67.72;96026.09;4374694;32;20204;-62
2022/06/17 04:04:47;;;;;;;1.13;1.13;;;;;;;18.04;68.26;96032.50;4360991;32;20238;-62
2022/06/17 04:07:13;;;;;;;1.23;1.23;;;;;;;17.96;68.06;96027.94;4372669;32;20243;-62
2022/06/17 04:09:43;;;;;;;0.83;0.83;;;;;;;17.85;68.96;96032.88;4364023;32;20211;-62
2022/06/17 04:12:11;;;;;;;1.30;1.23;;;;;;;17.88;68.21;96029.53;4373331;32;20224;-62
2022/06/17 04:15:18;;;;;;;1.10;1.10;;;;;;;17.95;69.31;96029.84;4373038;32;20272;-63
2022/06/17 04:17:48;;;;;;;1.00;1.00;;;;;;;17.96;69.95;96020.66;4330037;32;20190;-62
2022/06/17 04:20:25;;;;;;;0.80;0.80;;;;;;;17.94;69.60;96012.16;4372509;32;20252;-62
2022/06/17 04:22:54;;;;;;;1.40;1.40;;;;;;;17.97;68.26;96013.41;4352446;32;20196;-62
2022/06/17 04:25:41;;;;;;;1.67;1.57;;;;;;;17.94;68.15;96011.34;4351086;32;20211;-62
2022/06/17 04:28:11;;;;;;;1.37;1.37;;;;;;;17.95;67.41;96015.63;4338654;32;20201;-63
2022/06/17 04:31:11;;;;;;;1.33;1.23;;;;;;;17.99;69.04;96013.88;4331899;32;20243;-62
2022/06/17 04:33:44;;;;;;;0.70;0.70;;;;;;;18.04;68.86;96024.44;4349722;32;20223;-62
2022/06/17 04:36:50;;;;;;;0.60;0.60;;;;;;;17.91;67.60;96026.22;4372020;32;20223;-62
2022/06/17 04:39:28;;;;;;;1.10;1.10;;;;;;;17.91;69.35;96028.09;4356238;32;20204;-62
2022/06/17 04:41:58;;;;;;;0.77;0.77;;;;;;;17.90;66.44;96029.22;4353891;32;22985;-62
2022/06/17 04:44:24;;;;;;;1.10;1.10;;;;;;;17.71;67.76;96033.06;4360717;32;20244;-62
2022/06/17 04:47:06;;;;;;;0.87;0.87;;;;;;;17.56;67.84;96033.56;4370509;32;20196;-62
2022/06/17 04:49:36;;;;;;;0.77;0.77;;;;;;;17.51;68.38;96042.56;4365421;32;20181;-62
2022/06/17 04:52:13;;;;;;;0.90;0.90;;;;;;;17.56;68.67;96041.62;4360600;32;20188;-62
2022/06/17 04:54:40;;;;;;;1.23;1.23;;;;;;;17.66;69.42;96048.59;4371418;32;20236;-62
2022/06/17 04:57:06;;;;;;;1.07;1.07;;;;;;;17.68;69.66;96057.88;4372958;32;20193;-62
2022/06/17 04:59:34;;;;;;;1.00;1.00;;;;;;;17.69;69.38;96062.13;4362424;32;20181;-62
2022/06/17 05:02:03;;;;;;;1.07;1.07;;;;;;;17.69;70.34;96067.50;4374824;32;20197;-62
2022/06/17 05:04:29;;;;;;;1.57;1.50;;;;;;;17.89;69.65;96074.06;4374420;32;20208;-62
2022/06/17 05:06:55;;;;;;;1.37;1.37;;;;;;;17.83;68.71;96070.78;4360014;32;20343;-62
2022/06/17 05:09:23;;;;;;;1.20;1.20;;;;;;;17.89;70.50;96073.28;4372959;32;20185;-62
2022/06/17 05:11:54;;;;;;;0.90;0.90;;;;;;;17.90;69.17;96080.22;4356887;32;20246;-62
2022/06/17 05:14:41;;;;;;;0.87;0.87;;;;;;;18.07;68.67;96080.19;4366087;32;20197;-62
2022/06/17 05:17:07;;;;;;;1.10;0.93;;;;;;;18.14;68.14;96083.94;4371649;32;20192;-62
2022/06/17 05:19:33;;;;;;;1.33;1.33;;;;;;;18.27;66.71;96084.84;4362259;32;20207;-62
2022/06/17 05:22:02;;;;;;;1.43;0.90;;;;;;;18.32;66.34;96097.28;4361992;32;20224;-62
2022/06/17 05:24:30;;;;;;;1.47;1.37;;;;;;;18.33;65.50;96093.47;4371979;32;20215;-62
2022/06/17 05:26:57;;;;;;;0.77;0.77;;;;;;;18.40;61.64;96094.56;4376890;32;20187;-62
2022/06/17 05:29:24;;;;;;;1.43;1.33;;;;;;;18.51;64.94;96105.72;4373867;32;20201;-61
2022/06/17 05:31:50;;;;;;;0.70;0.70;;;;;;;18.59;60.20;96106.78;4376560;32;20188;-62
2022/06/17 05:34:16;;;;;;;1.83;1.73;;;;;;;18.70;59.84;96108.03;4362142;32;20206;-62
2022/06/17 05:36:41;;;;;;;0.70;0.70;;;;;;;18.72;60.72;96111.97;4376209;32;20210;-62
2022/06/17 05:39:06;;;;;;;1.43;1.33;;;;;;;18.76;61.80;96115.56;4375452;32;20181;-62
2022/06/17 05:41:32;;;;;;;0.90;0.90;;;;;;;18.78;64.12;96115.25;4363903;32;20188;-62
2022/06/17 05:43:58;;;;;;;1.03;1.03;;;;;;;18.83;61.69;96113.16;4362801;32;20201;-62
2022/06/17 05:46:24;;;;;;;1.27;1.23;;;;;;;18.90;60.29;96112.66;4362132;32;20235;-62
2022/06/17 05:48:49;;;;;;;1.13;1.00;;;;;;;18.91;59.98;96114.25;4376650;32;20244;-63
2022/06/17 05:51:15;;;;;;;0.90;0.90;;;;;;;18.95;61.60;96115.13;4376051;32;20246;-63
2022/06/17 05:53:40;;;;;;;1.07;1.07;;;;;;;19.06;61.00;96119.03;4375814;32;20297;-63
2022/06/17 05:56:11;;;;;;;1.20;1.10;;;;;;;19.05;59.19;96114.75;4376117;32;20192;-63
2022/06/17 05:58:40;;;;;;;0.63;0.63;;;;;;;19.17;61.74;96119.41;4359285;32;20205;-62
2022/06/17 06:01:14;;;;;;;1.17;1.17;;;;;;;19.15;61.49;96122.44;4356163;32;20250;-63
2022/06/17 06:03:40;;;;;;;1.40;1.13;;;;;;;19.23;59.27;96118.91;4370064;32;20192;-62
2022/06/17 06:06:15;;;;;;;0.60;0.60;;;;;;;19.24;59.30;96130.44;4372785;32;20185;-62
2022/06/17 06:08:42;;;;;;;0.50;0.50;;;;;;;19.40;61.72;96126.03;4374853;32;20246;-63
2022/06/17 06:11:18;;;;;;;1.07;1.07;;;;;;;19.45;60.42;96131.22;4376849;32;20203;-63
2022/06/17 06:13:45;;;;;;;0.80;0.80;;;;;;;19.45;60.09;96128.53;4376642;32;20184;-62
2022/06/17 06:16:15;;;;;;;0.73;0.73;;;;;;;19.53;60.13;96135.00;4375483;32;20282;-62
2022/06/17 06:18:41;;;;;;;0.60;0.60;;;;;;;19.50;59.17;96143.72;4375853;32;20193;-63
2022/06/17 06:21:17;;;;;;;1.03;1.03;;;;;;;19.59;59.24;96141.72;4374555;32;20294;-62
2022/06/17 06:23:43;;;;;;;0.83;0.83;;;;;;;19.63;58.45;96148.03;4375884;32;20207;-63
2022/06/17 06:26:17;;;;;;;0.63;0.63;;;;;;;19.77;60.00;96145.84;4375564;32;20243;-63
2022/06/17 06:28:43;;;;;;;1.20;1.20;;;;;;;19.94;59.54;96149.50;4361534;32;20205;-62
2022/06/17 06:31:33;;;;;;;1.90;1.17;;;;;;;19.97;56.10;96154.19;4370422;32;20290;-63
2022/06/17 06:33:59;;;;;;;0.97;0.97;;;;;;;20.02;58.26;96159.37;4374535;32;20197;-62
2022/06/17 06:36:25;;;;;;;1.67;1.60;;;;;;;19.89;58.71;96159.37;4375833;32;20294;-62
2022/06/17 06:38:51;;;;;;;0.83;0.83;;;;;;;19.94;58.17;96160.28;4376508;32;20212;-63
2022/06/17 06:41:17;;;;;;;0.43;0.43;;;;;;;20.11;59.19;96160.09;4373891;32;20219;-62
2022/06/17 06:43:43;;;;;;;1.13;1.13;;;;;;;20.06;56.57;96163.78;4362118;32;20252;-62
2022/06/17 06:46:17;;;;;;;1.37;1.37;;;;;;;20.04;57.70;96163.31;4362688;32;20236;-62
2022/06/17 06:48:44;;;;;;;1.10;1.10;;;;;;;19.96;58.46;96164.19;4370104;32;20219;-62
2022/06/17 06:51:12;;;;;;;3.33;1.63;;;;;;;20.11;56.61;96160.09;4368424;32;20242;-62
2022/06/17 06:53:37;;;;;;;1.30;1.20;;;;;;;20.14;57.29;96164.81;4372834;32;20193;-63
2022/06/17 06:56:05;;;;;;;1.33;1.33;;;;;;;20.20;57.69;96163.47;4375888;32;20207;-62
2022/06/17 06:58:46;;;;;;;0.73;0.73;;;;;;;20.35;57.12;96176.31;4374345;32;20188;-62
2022/06/17 07:01:11;;;;;;;2.33;1.37;;;;;;;20.32;57.68;96171.59;4374576;32;20297;-62
2022/06/17 07:03:36;;;;;;;0.63;0.63;;;;;;;20.50;56.45;96172.22;4375911;32;20188;-63
2022/06/17 07:06:13;;;;;;;1.90;0.97;;;;;;;20.80;54.70;96172.75;4363044;32;20230;-63
2022/06/17 07:08:38;;;;;;;0.53;0.53;;;;;;;20.99;55.86;96181.06;4373719;32;20197;-62
2022/06/17 07:11:16;;;;;;;2.73;1.23;;;;;;;21.07;55.70;96180.19;4365851;32;20224;-62
2022/06/17 07:13:42;;;;;;;0.57;0.57;;;;;;;21.06;54.42;96178.59;4374125;32;20192;-62
2022/06/17 07:16:14;;;;;;;0.60;0.60;;;;;;;21.04;54.08;96185.47;4361059;32;20211;-63
2022/06/17 07:18:40;;;;;;;0.87;0.87;;;;;;;21.07;53.91;96185.56;4359323;32;20250;-63
2022/06/17 07:21:13;;;;;;;2.57;1.43;;;;;;;21.11;54.64;96181.06;4358583;32;20200;-63
2022/06/17 07:23:41;;;;;;;1.80;1.07;;;;;;;21.24;54.32;96184.56;4358568;32;20199;-62
2022/06/17 07:26:19;;;;;;;0.80;0.80;;;;;;;21.17;55.12;96177.03;4359222;32;20204;-63
2022/06/17 07:28:46;;;;;;;1.13;1.13;;;;;;;21.11;54.71;96185.69;4372347;32;20230;-63
2022/06/17 07:31:14;;;;;;;1.00;1.00;;;;;;;21.11;54.78;96177.59;4358620;32;20185;-63
2022/06/17 07:33:40;;;;;;;0.70;0.70;;;;;;;21.20;57.57;96178.25;4359541;32;20181;-63
2022/06/17 07:39:53;;;;;;;1.47;1.37;;;;;;;21.18;54.88;96178.59;4374513;32;20180;-63
2022/06/17 07:41:54;;;;;;;0.83;0.83;;;;;;;21.12;55.11;96181.87;4370517;32;20203;-63
2022/06/17 07:44:20;;;;;;;0.43;0.43;;;;;;;21.09;55.46;96179.84;4373064;32;20189;-62
2022/06/17 07:46:45;;;;;;;1.33;1.33;;;;;;;21.20;55.71;96179.06;4373258;32;20188;-63
2022/06/17 07:49:12;;;;;;;0.83;0.83;;;;;;;21.26;55.43;96180.41;4367183;32;20200;-63
2022/06/17 07:51:38;;;;;;;1.00;1.00;;;;;;;21.29;56.02;96187.03;4360372;32;20250;-63
2022/06/17 07:54:03;;;;;;;0.97;0.90;;;;;;;21.40;55.36;96181.97;4375030;32;20192;-62
2022/06/17 07:56:30;;;;;;;1.57;1.57;;;;;;;21.34;55.86;96183.31;4374325;32;20227;-63
2022/06/17 07:58:55;;;;;;;1.07;1.07;;;;;;;21.42;55.15;96179.69;4375241;32;20200;-63
2022/06/17 08:01:21;;;;;;;0.80;0.80;;;;;;;21.44;55.18;96182.84;4374690;32;20188;-63
2022/06/17 08:03:46;;;;;;;1.97;0.90;;;;;;;21.43;56.45;96184.75;4374753;32;20181;-63
2022/06/17 08:06:13;;;;;;;1.43;1.43;;;;;;;21.54;54.52;96183.16;4373957;32;20231;-63
2022/06/17 08:08:41;;;;;;;0.83;0.80;;;;;;;21.62;53.20;96184.13;4361705;32;20298;-62
2022/06/17 08:11:12;;;;;;;0.83;0.83;;;;;;;21.63;55.16;96191.09;4371768;32;20199;-63
2022/06/17 08:13:38;;;;;;;1.23;1.23;;;;;;;21.73;55.44;96190.63;4350303;32;20209;-63
2022/06/17 08:16:17;;;;;;;0.83;0.83;;;;;;;21.77;54.47;96193.44;4372567;32;20184;-62
2022/06/17 08:18:43;;;;;;;1.90;0.70;;;;;;;21.94;52.98;96190.44;4372731;32;20200;-63
2022/06/17 08:21:14;;;;;;;0.50;0.50;;;;;;;21.91;52.79;96186.50;4360278;32;20193;-63
2022/06/17 08:23:41;;;;;;;0.47;0.47;;;;;;;21.90;54.04;96190.34;4360717;32;20280;-62
2022/06/17 08:26:12;;;;;;;1.70;1.60;;;;;;;21.93;52.71;96184.25;4373663;32;20207;-63
2022/06/17 08:28:38;;;;;;;0.87;0.87;;;;;;;21.97;53.89;96188.97;4360870;32;20215;-63
2022/06/17 08:31:04;;;;;;;1.00;1.00;;;;;;;22.04;53.00;96189.97;4374980;32;20237;-63
2022/06/17 08:33:32;;;;;;;0.77;0.77;;;;;;;21.95;53.49;96192.81;4374798;32;20217;-63
2022/06/17 08:36:20;;;;;;;1.30;1.30;;;;;;;21.97;53.27;96192.47;4367486;32;20204;-62
2022/06/17 08:38:53;;;;;;;0.37;0.37;;;;;;;22.03;53.04;96195.75;4374077;32;20188;-63
2022/06/17 08:41:29;;;;;;;3.03;1.33;;;;;;;21.95;52.26;96192.81;4360925;32;20230;-63
2022/06/17 08:44:28;;;;;;;1.07;1.07;;;;;;;22.03;52.13;96198.44;4374506;32;20295;-63
2022/06/17 08:47:06;;;;;;;2.87;1.10;;;;;;;22.11;49.21;96200.97;4374020;32;20188;-63
2022/06/17 08:50:02;;;;;;;0.90;0.90;;;;;;;22.17;49.13;96204.22;4373789;32;20301;-63
2022/06/17 08:52:35;;;;;;;1.23;1.13;;;;;;;22.25;48.74;96206.75;4349128;32;20208;-63
2022/06/17 08:55:06;;;;;;;0.90;0.90;;;;;;;22.16;50.89;96216.94;4353819;32;20256;-63
2022/06/17 08:57:50;;;;;;;0.90;0.90;;;;;;;22.24;49.81;96217.91;4343693;32;20203;-63
2022/06/17 09:00:16;;;;;;;0.87;0.87;;;;;;;22.28;50.10;96216.88;4343306;32;20201;-63
2022/06/17 09:03:15;;;;;;;0.93;0.93;;;;;;;22.35;50.24;96210.09;4349968;32;20193;-63
2022/06/17 09:05:40;;;;;;;0.40;0.40;;;;;;;22.32;49.72;96222.38;4340937;32;20189;-63
2022/06/17 09:08:16;;;;;;;1.00;1.00;;;;;;;22.40;50.32;96213.34;4339143;32;20242;-63
2022/06/17 09:11:16;;;;;;;0.60;0.60;;;;;;;22.22;50.76;96215.56;4350214;32;20189;-63
2022/06/17 09:14:07;;;;;;;0.50;0.50;;;;;;;22.32;51.88;96222.38;4357108;32;20238;-63
2022/06/17 09:17:10;;;;;;;0.77;0.77;;;;;;;22.48;47.99;96222.41;4361162;32;20186;-62
2022/06/17 09:19:40;;;;;;;0.50;0.50;;;;;;;22.44;45.91;96224.25;4343760;32;20204;-63
2022/06/17 09:22:24;;;;;;;0.60;0.60;;;;;;;22.57;45.00;96226.53;4341519;32;20204;-63
2022/06/17 09:24:52;;;;;;;1.17;1.17;;;;;;;22.46;45.48;96227.38;4344751;32;20255;-63
2022/06/17 09:27:27;;;;;;;1.03;1.03;;;;;;;22.45;45.93;96223.09;4346751;32;20198;-63
2022/06/17 09:30:03;;;;;;;1.70;1.23;;;;;;;22.52;45.95;96218.66;4338092;32;20199;-63
2022/06/17 09:32:54;;;;;;;1.47;1.43;;;;;;;22.58;44.74;96219.19;4364720;32;20234;-63
2022/06/17 09:35:44;;;;;;;0.30;0.30;;;;;;;22.71;44.62;96233.41;4299154;33;20230;-63
2022/06/17 09:38:17;;;;;;;0.83;0.83;;;;;;;22.67;45.81;96230.63;4342423;32;20241;-63
2022/06/17 09:40:59;;;;;;;2.07;1.17;;;;;;;22.63;45.14;96232.47;4355649;32;20219;-63
2022/06/17 09:43:43;;;;;;;1.03;0.87;;;;;;;22.76;44.79;96227.75;4333822;32;20298;-63
2022/06/17 09:46:22;;;;;;;1.07;1.07;;;;;;;22.80;46.08;96228.66;4355127;32;20189;-63
2022/06/17 09:49:08;;;;;;;0.40;0.40;;;;;;;22.88;44.42;96224.97;4352313;32;20211;-63
2022/06/17 09:51:51;;;;;;;0.67;0.67;;;;;;;22.94;45.14;96229.00;4344685;32;20210;-63
2022/06/17 09:54:31;;;;;;;0.47;0.47;;;;;;;22.91;46.49;96216.94;4347649;32;20215;-63
2022/06/17 09:57:02;;;;;;;0.93;0.93;;;;;;;23.08;45.90;96226.63;4334977;32;20189;-63
2022/06/17 10:00:10;;;;;;;0.57;0.57;;;;;;;23.12;45.84;96226.72;4357531;32;20189;-63
2022/06/17 10:03:11;;;;;;;0.83;0.83;;;;;;;23.14;45.79;96217.09;4324217;32;20233;-64
2022/06/17 10:06:11;;;;;;;0.97;0.97;;;;;;;23.16;45.56;96233.78;4339288;32;20189;-63
2022/06/17 10:08:54;;;;;;;0.33;0.33;;;;;;;23.03;45.89;96224.19;4359114;32;20189;-63
2022/06/17 10:11:20;;;;;;;0.80;0.80;;;;;;;23.18;45.82;96223.38;4359898;32;20243;-63
2022/06/17 10:14:07;;;;;;;0.50;0.50;;;;;;;23.24;45.18;96230.13;4359456;32;20248;-63
2022/06/17 10:20:19;;;;;;;0.80;0.80;;;;;;;23.22;45.36;96226.97;4360959;32;20199;-63
2022/06/17 10:22:57;;;;;;;0.57;0.57;;;;;;;23.20;44.49;96229.25;4352753;32;20264;-63
2022/06/17 10:25:35;;;;;;;0.73;0.73;;;;;;;23.21;45.11;96230.81;4360138;32;20242;-63
2022/06/17 10:28:45;;;;;;;2.33;1.13;;;;;;;23.21;44.62;96232.72;4352111;32;20192;-63
2022/06/17 10:31:41;;;;;;;0.33;0.33;;;;;;;23.22;45.28;96221.56;4343402;32;20282;-63
2022/06/17 10:34:18;;;;;;;0.50;0.50;;;;;;;23.16;43.87;96228.37;4306216;33;20255;-63
2022/06/17 10:36:46;;;;;;;0.60;0.60;;;;;;;23.23;43.49;96236.66;4310833;33;20189;-63
2022/06/17 10:39:16;;;;;;;0.70;0.70;;;;;;;23.12;43.34;96221.28;4359819;32;20189;-63
2022/06/17 10:41:44;;;;;;;3.40;1.10;;;;;;;23.07;43.53;96224.28;4351863;32;20225;-63
2022/06/17 10:44:17;;;;;;;0.40;0.40;;;;;;;23.12;43.93;96218.59;4360969;32;20263;-62
2022/06/17 10:46:53;;;;;;;2.20;1.20;;;;;;;23.18;44.40;96215.25;4358940;32;20220;-63
2022/06/17 10:49:31;;;;;;;0.60;0.37;;;;;;;23.17;44.84;96205.56;4358182;32;20207;-63
2022/06/17 10:51:58;;;;;;;0.90;0.90;;;;;;;23.17;44.99;96197.44;4360307;32;20200;-63
2022/06/17 10:54:29;;;;;;;1.00;1.00;;;;;;;23.30;44.67;96206.22;4340571;32;20193;-63
2022/06/17 10:56:55;;;;;;;0.97;0.63;;;;;;;23.33;44.68;96205.53;4362203;32;20314;-63
2022/06/17 10:59:32;;;;;;;0.60;0.60;;;;;;;23.46;42.73;96204.28;4363724;32;20197;-63
2022/06/17 11:01:58;;;;;;;0.70;0.70;;;;;;;23.52;41.47;96196.69;4349392;32;20181;-63
2022/06/17 11:04:34;;;;;;;0.53;0.53;;;;;;;23.64;41.27;96199.28;4341445;32;20193;-63
2022/06/17 11:07:16;;;;;;;0.60;0.60;;;;;;;23.73;41.13;96201.75;4359697;32;20236;-63
2022/06/17 11:09:55;;;;;;;0.70;0.70;;;;;;;23.65;41.32;96200.84;4347436;32;20204;-63
2022/06/17 11:12:50;;;;;;;0.47;0.47;;;;;;;23.76;41.16;96209.19;4350573;32;20196;-62
2022/06/17 11:15:34;;;;;;;0.40;0.40;;;;;;;23.82;40.23;96205.06;4359987;32;20185;-63
2022/06/17 11:18:17;;;;;;;0.60;0.40;;;;;;;23.75;40.71;96205.69;4365315;32;20185;-63
2022/06/17 11:20:54;;;;;;;0.30;0.30;;;;;;;23.70;40.18;96197.81;4360499;32;20181;-63
2022/06/17 11:23:28;;;;;;;1.93;1.87;;;;;;;23.69;40.67;96212.53;4361505;32;20223;-62
2022/06/17 11:26:27;;;;;;;1.77;1.77;;;;;;;23.81;39.43;96203.47;4351930;32;20192;-62
2022/06/17 11:29:18;;;;;;;0.67;0.67;;;;;;;23.75;39.57;96210.31;4346849;32;20200;-63
2022/06/17 11:31:49;;;;;;;0.77;0.77;;;;;;;23.69;39.80;96207.13;4340693;32;20201;-64
2022/06/17 11:34:26;;;;;;;0.77;0.77;;;;;;;23.71;40.07;96210.25;4349619;32;20251;-63
2022/06/17 11:37:10;;;;;;;0.50;0.50;;;;;;;23.71;39.93;96202.09;4340153;32;20228;-63
2022/06/17 11:39:37;;;;;;;6.93;6.43;;;;;;;23.79;38.48;96200.34;4348994;32;20215;-64
2022/06/17 11:42:24;;;;;;;12.50;11.20;;;;;;;23.75;40.43;96194.06;4356244;32;20235;-64
2022/06/17 11:44:56;;;;;;;2.93;2.80;;;;;;;23.78;39.59;96183.28;4348509;32;20232;-63
2022/06/17 11:47:24;;;;;;;1.80;1.53;;;;;;;23.74;41.59;96185.13;4356348;32;20193;-64
2022/06/17 11:49:52;;;;;;;0.63;0.63;;;;;;;23.84;41.79;96184.59;4327409;33;20267;-63
2022/06/17 11:52:32;;;;;;;1.67;0.77;;;;;;;23.87;41.35;96180.38;4347177;32;20206;-63
2022/06/17 11:55:00;;;;;;;1.00;0.90;;;;;;;24.01;40.91;96186.06;4336248;32;20188;-63
2022/06/17 11:57:39;;;;;;;0.50;0.50;;;;;;;23.86;41.26;96174.19;4338014;32;20299;-63
2022/06/17 12:00:38;;;;;;;0.40;0.40;;;;;;;23.88;41.47;96177.31;4357480;32;20184;-63
2022/06/17 12:03:04;;;;;;;0.30;0.30;;;;;;;23.92;39.42;96178.12;4360373;32;20189;-64
2022/06/17 12:05:32;;;;;;;1.83;0.80;;;;;;;23.90;41.08;96174.25;4345812;32;20203;-63
2022/06/17 12:08:24;;;;;;;0.50;0.50;;;;;;;23.86;40.23;96181.53;4348357;32;20204;-63
2022/06/17 12:10:51;;;;;;;0.77;0.77;;;;;;;23.89;40.91;96178.88;4348002;32;20240;-63